Time;durP1;ratioP1;P1;durP2;ratioP2;P2;SDS_P1;SDS_P2;PMS_P1;PMS_P2;Temp;Humidity;BMP_temperature;BMP_pressure;BME280_temperature;BME280_humidity;BME280_pressure;Samples;Min_cycle;Max_cycle;Signal;HPM_P1;HPM_P2
2021/08/29 00:00:00;;;;;;;28.00;14.40;;;;;;;12.60;64.27;98713.42;112043;1205;108811;-75
2021/08/29 00:02:28;;;;;;;30.90;15.90;;;;;;;12.56;64.34;98715.43;112063;1198;97810;-75
2021/08/29 00:04:58;;;;;;;28.60;15.80;;;;;;;12.52;64.46;98724.48;112004;1198;96471;-74
2021/08/29 00:07:26;;;;;;;26.90;15.00;;;;;;;12.50;64.43;98737.44;111984;1205;111264;-75
2021/08/29 00:09:54;;;;;;;29.40;15.70;;;;;;;12.49;64.43;98742.52;112095;1197;98730;-75
2021/08/29 00:12:22;;;;;;;25.60;15.30;;;;;;;12.47;64.49;98746.72;112072;1198;107434;-75
2021/08/29 00:14:50;;;;;;;25.00;13.10;;;;;;;12.46;64.71;98744.52;112007;1198;95051;-73
2021/08/29 00:17:18;;;;;;;29.20;14.70;;;;;;;12.45;64.78;98749.20;112030;1201;97741;-76
2021/08/29 00:19:46;;;;;;;28.10;15.30;;;;;;;12.46;64.91;98750.77;112024;1205;111248;-74
2021/08/29 00:22:14;;;;;;;27.70;15.10;;;;;;;12.47;65.01;98752.60;112027;1198;97694;-75
2021/08/29 00:24:44;;;;;;;27.10;14.20;;;;;;;12.50;65.19;98750.25;112025;1199;107415;-75
2021/08/29 00:27:12;;;;;;;26.80;14.10;;;;;;;12.54;65.32;98753.81;112071;1205;97722;-75
2021/08/29 00:29:40;;;;;;;26.30;13.80;;;;;;;12.59;65.36;98752.71;111993;1200;97649;-76
2021/08/29 00:32:08;;;;;;;25.00;13.20;;;;;;;12.64;65.39;98757.76;112004;1197;111135;-75
2021/08/29 00:34:42;;;;;;;23.30;12.50;;;;;;;12.67;65.25;98754.98;112095;1204;97694;-78
2021/08/29 00:37:09;;;;;;;27.20;12.50;;;;;;;12.70;65.30;98754.76;112038;1197;107439;-74
2021/08/29 00:39:37;;;;;;;23.50;12.40;;;;;;;12.72;65.52;98751.23;112040;1205;97657;-76
2021/08/29 00:42:09;;;;;;;24.00;12.00;;;;;;;12.75;65.65;98750.55;112040;1205;97683;-75
2021/08/29 00:44:40;;;;;;;25.30;12.30;;;;;;;12.80;65.70;98742.31;112050;1205;111243;-74
2021/08/29 00:47:11;;;;;;;27.40;13.30;;;;;;;12.86;65.83;98744.45;112078;1205;97652;-74
2021/08/29 00:49:42;;;;;;;26.00;12.80;;;;;;;12.91;65.82;98740.82;112060;1205;107525;-75
2021/08/29 00:52:10;;;;;;;25.30;13.00;;;;;;;12.96;65.90;98734.95;112047;1197;97620;-74
2021/08/29 00:54:40;;;;;;;23.80;12.50;;;;;;;12.99;65.88;98731.59;112098;1197;95038;-75
2021/08/29 00:57:11;;;;;;;23.30;12.60;;;;;;;13.03;65.87;98728.04;112079;1197;111229;-77
2021/08/29 00:59:42;;;;;;;24.10;12.10;;;;;;;13.06;66.01;98722.80;112021;1197;98312;-77
2021/08/29 01:02:20;;;;;;;21.50;11.50;;;;;;;13.09;66.04;98716.46;112016;1205;107502;-75
2021/08/29 01:05:08;;;;;;;23.20;11.70;;;;;;;13.12;66.02;98714.95;112046;1198;96202;-77
2021/08/29 01:07:42;;;;;;;22.00;12.00;;;;;;;13.16;66.06;98711.98;112079;1206;95052;-77
2021/08/29 01:10:20;;;;;;;23.70;11.70;;;;;;;13.19;66.04;98711.75;112078;1197;111194;-77
2021/08/29 01:13:24;;;;;;;23.30;11.70;;;;;;;13.20;66.15;98701.27;112119;1205;97565;-77
2021/08/29 01:15:57;;;;;;;23.80;12.20;;;;;;;13.23;66.13;98706.92;112081;1206;107848;-75
2021/08/29 01:18:29;;;;;;;;;;;;;;;13.24;66.14;98708.34;112057;1205;97609;-76
2021/08/29 01:21:21;;;;;;;22.40;11.00;;;;;;;13.23;66.22;98691.70;112086;1205;95037;-74
2021/08/29 01:24:00;;;;;;;25.30;12.40;;;;;;;13.26;66.24;98677.79;112030;1205;111249;-75
2021/08/29 01:27:00;;;;;;;23.80;12.70;;;;;;;13.28;66.32;98669.08;112099;1197;98331;-76
2021/08/29 01:29:31;;;;;;;22.60;11.70;;;;;;;13.29;66.25;98675.36;112063;1205;107398;-77
2021/08/29 01:32:04;;;;;;;24.00;12.40;;;;;;;13.31;66.34;98674.00;112039;1199;98361;-75
2021/08/29 01:34:35;;;;;;;23.60;12.80;;;;;;;13.31;66.30;98670.58;112104;1205;97604;-76
2021/08/29 01:37:09;;;;;;;23.20;11.90;;;;;;;13.32;66.28;98670.86;112101;1205;111870;-74
2021/08/29 01:39:40;;;;;;;;;;;;;;;13.33;66.42;98667.55;112084;1205;95044;-75
2021/08/29 01:42:11;;;;;;;23.60;12.40;;;;;;;13.32;66.55;98663.73;112092;1206;106605;-75
2021/08/29 01:44:43;;;;;;;27.20;13.70;;;;;;;13.31;66.48;98660.58;112095;1201;97708;-77
2021/08/29 01:47:16;;;;;;;22.60;12.30;;;;;;;13.31;66.55;98660.39;112086;1206;97664;-76
2021/08/29 01:49:48;;;;;;;28.30;13.70;;;;;;;13.32;66.59;98660.36;112096;1205;111145;-77
2021/08/29 01:52:16;;;;;;;23.50;12.90;;;;;;;13.33;66.68;98664.52;112088;1197;97634;-74
2021/08/29 01:54:44;;;;;;;23.80;13.00;;;;;;;13.34;66.67;98659.63;112008;1200;107542;-78
2021/08/29 01:57:14;;;;;;;23.40;12.30;;;;;;;13.35;66.59;98655.42;112027;1198;95034;-77
2021/08/29 01:59:45;;;;;;;29.00;13.90;;;;;;;13.36;66.78;98649.98;112069;1200;97665;-77
2021/08/29 02:02:19;;;;;;;25.30;13.50;;;;;;;13.37;66.83;98653.46;112082;1206;111065;-76
2021/08/29 02:04:46;;;;;;;;;;;;;;;13.38;66.75;98658.83;112074;1205;95346;-77
2021/08/29 02:07:25;;;;;;;25.70;13.20;;;;;;;13.37;66.88;98657.56;112081;1205;107593;-76
2021/08/29 02:10:01;;;;;;;25.30;14.10;;;;;;;13.37;66.95;98649.86;112062;1198;97668;-75
2021/08/29 02:12:46;;;;;;;27.50;13.90;;;;;;;13.38;66.95;98648.94;112084;1199;97611;-76
2021/08/29 02:15:30;;;;;;;25.70;13.20;;;;;;;13.38;67.03;98644.12;112071;1205;111155;-73
2021/08/29 02:18:08;;;;;;;23.40;12.20;;;;;;;13.37;67.00;98637.41;112071;1200;97677;-72
2021/08/29 02:20:40;;;;;;;24.40;13.70;;;;;;;13.36;66.97;98632.16;112049;1205;107436;-76
2021/08/29 02:23:08;;;;;;;24.80;13.70;;;;;;;13.35;67.02;98633.45;112081;1205;95058;-76
2021/08/29 02:25:36;;;;;;;26.40;13.90;;;;;;;13.36;67.14;98629.84;112081;1205;97677;-75
2021/08/29 02:28:04;;;;;;;24.90;14.10;;;;;;;13.38;67.18;98626.52;112092;1206;111244;-77
2021/08/29 02:30:31;;;;;;;25.00;14.10;;;;;;;13.39;67.23;98623.36;112089;1205;98285;-77
2021/08/29 02:33:02;;;;;;;25.80;14.20;;;;;;;13.39;67.30;98619.63;112022;1206;107373;-74
2021/08/29 02:35:30;;;;;;;25.50;13.70;;;;;;;13.39;67.25;98618.90;112013;1198;98035;-76
2021/08/29 02:38:01;;;;;;;24.60;13.70;;;;;;;13.39;67.33;98612.48;112053;1200;96856;-75
2021/08/29 02:40:40;;;;;;;25.60;14.00;;;;;;;13.39;67.36;98614.28;112056;1205;111218;-75
2021/08/29 02:43:11;;;;;;;26.00;14.40;;;;;;;13.38;67.43;98613.81;112108;1205;97577;-75
2021/08/29 02:45:43;;;;;;;25.20;14.20;;;;;;;13.38;67.35;98615.96;111982;1206;107478;-75
2021/08/29 02:48:15;;;;;;;24.30;12.70;;;;;;;13.37;67.38;98617.16;112101;1198;97580;-75
2021/08/29 02:50:47;;;;;;;23.10;13.70;;;;;;;13.31;67.20;98617.31;112086;1205;97621;-74
2021/08/29 02:53:18;;;;;;;25.50;12.60;;;;;;;13.21;67.28;98618.77;112070;1205;111115;-72
2021/08/29 02:55:55;;;;;;;23.10;12.20;;;;;;;13.14;67.35;98614.08;112119;1205;97667;-77
2021/08/29 02:58:27;;;;;;;23.40;12.40;;;;;;;13.08;67.28;98610.50;112050;1205;107483;-76
2021/08/29 03:00:58;;;;;;;23.30;13.30;;;;;;;13.02;67.45;98605.23;112098;1200;97800;-73
2021/08/29 03:03:26;;;;;;;26.30;13.10;;;;;;;12.98;67.61;98604.65;112122;1205;96951;-76
2021/08/29 03:06:00;;;;;;;25.40;12.20;;;;;;;12.98;67.71;98608.59;112050;1205;111291;-75
2021/08/29 03:08:28;;;;;;;24.40;12.40;;;;;;;12.99;67.84;98607.95;112068;1205;97557;-76
2021/08/29 03:10:59;;;;;;;25.00;13.00;;;;;;;13.03;67.90;98605.44;112030;1205;107357;-76
2021/08/29 03:13:29;;;;;;;25.50;12.70;;;;;;;13.06;67.99;98603.89;112073;1200;97745;-77
2021/08/29 03:15:58;;;;;;;26.50;13.50;;;;;;;13.09;67.95;98606.66;112003;1199;95139;-75
2021/08/29 03:18:30;;;;;;;25.90;12.90;;;;;;;13.10;67.93;98606.04;112058;1205;110922;-75
2021/08/29 03:20:58;;;;;;;26.60;12.90;;;;;;;13.12;68.06;98606.94;112110;1205;97618;-76
2021/08/29 03:23:26;;;;;;;24.00;12.90;;;;;;;13.13;68.03;98609.33;112101;1205;107082;-75
2021/08/29 03:25:54;;;;;;;25.30;13.10;;;;;;;13.14;68.09;98609.95;112099;1199;97588;-75
2021/08/29 03:28:25;;;;;;;26.10;13.80;;;;;;;13.18;68.23;98612.27;112110;1199;97591;-77
2021/08/29 03:30:58;;;;;;;23.80;12.50;;;;;;;13.21;68.20;98613.61;112075;1206;111085;-78
2021/08/29 03:33:30;;;;;;;25.10;14.00;;;;;;;13.19;67.88;98620.02;112101;1205;96659;-77
2021/08/29 03:36:01;;;;;;;22.70;11.60;;;;;;;13.14;68.01;98618.19;112087;1205;107497;-77
2021/08/29 03:38:33;;;;;;;27.70;13.30;;;;;;;13.07;67.95;98621.38;112052;1205;96485;-77
2021/08/29 03:41:01;;;;;;;26.20;13.90;;;;;;;13.01;67.92;98626.77;112117;1205;97658;-77
2021/08/29 03:43:29;;;;;;;22.50;11.80;;;;;;;12.96;68.09;98627.44;112085;1205;111934;-77
2021/08/29 03:45:56;;;;;;;27.10;13.30;;;;;;;12.92;68.19;98628.24;112107;1205;97635;-77
2021/08/29 03:48:25;;;;;;;26.00;13.60;;;;;;;12.89;68.23;98634.95;112078;1205;107453;-77
2021/08/29 03:50:56;;;;;;;23.40;12.10;;;;;;;12.88;68.02;98632.73;112057;1205;98026;-78
2021/08/29 03:53:28;;;;;;;23.20;13.10;;;;;;;12.85;68.15;98632.67;112113;1199;95080;-77
2021/08/29 03:55:56;;;;;;;25.40;12.80;;;;;;;12.82;68.50;98631.48;112100;1205;111102;-78
2021/08/29 03:58:24;;;;;;;23.60;12.70;;;;;;;12.82;68.31;98631.91;112103;1206;97651;-78
2021/08/29 04:00:52;;;;;;;24.60;12.70;;;;;;;12.78;68.43;98627.17;112100;1205;107116;-76
2021/08/29 04:03:23;;;;;;;24.60;13.40;;;;;;;12.77;68.65;98621.95;112039;1199;97667;-76
2021/08/29 04:05:58;;;;;;;24.40;13.10;;;;;;;12.77;68.76;98619.11;112135;1200;97687;-78
2021/08/29 04:08:38;;;;;;;26.50;12.80;;;;;;;12.77;68.75;98616.13;112102;1205;111205;-76
2021/08/29 04:11:11;;;;;;;23.10;12.30;;;;;;;12.76;68.82;98615.48;112110;1204;97694;-76
2021/08/29 04:13:41;;;;;;;26.00;13.00;;;;;;;12.76;68.85;98615.52;112142;1205;107451;-72
2021/08/29 04:16:09;;;;;;;23.60;13.40;;;;;;;12.76;69.07;98616.02;112140;1205;97623;-77
2021/08/29 04:18:47;;;;;;;25.10;13.40;;;;;;;12.77;69.01;98618.57;112035;1200;97643;-75
2021/08/29 04:21:19;;;;;;;23.20;12.30;;;;;;;12.78;69.09;98619.23;112086;1205;110249;-77
2021/08/29 04:23:47;;;;;;;25.40;13.10;;;;;;;12.78;69.09;98622.06;112075;1205;95084;-78
2021/08/29 04:26:20;;;;;;;25.60;12.90;;;;;;;12.78;69.13;98617.91;112153;1205;107338;-77
2021/08/29 04:28:48;;;;;;;27.00;13.10;;;;;;;12.79;69.33;98614.14;112127;1205;95152;-79
2021/08/29 04:31:30;;;;;;;25.30;13.80;;;;;;;12.83;69.31;98611.52;112073;1197;96023;-79
2021/08/29 04:34:08;;;;;;;24.00;12.50;;;;;;;12.84;69.31;98615.46;112048;1205;111146;-77
2021/08/29 04:36:37;;;;;;;24.60;12.90;;;;;;;12.83;69.15;98617.52;112037;1205;97784;-77
2021/08/29 04:39:08;;;;;;;25.10;12.70;;;;;;;12.82;69.33;98619.23;112050;1205;107299;-76
2021/08/29 04:41:39;;;;;;;24.30;13.80;;;;;;;12.82;69.51;98616.06;112055;1200;97717;-77
2021/08/29 04:44:10;;;;;;;26.90;13.90;;;;;;;12.85;69.66;98617.38;112111;1200;96089;-79
2021/08/29 04:46:41;;;;;;;25.50;14.30;;;;;;;12.90;69.76;98618.70;112078;1199;109189;-76
2021/08/29 04:49:09;;;;;;;25.20;14.40;;;;;;;12.95;69.78;98622.31;112114;1205;97583;-79
2021/08/29 04:51:37;;;;;;;27.40;14.60;;;;;;;13.00;69.82;98621.35;112061;1205;107492;-77
2021/08/29 04:54:10;;;;;;;25.70;14.60;;;;;;;13.05;69.84;98624.23;112107;1199;97725;-75
2021/08/29 04:56:38;;;;;;;26.70;14.90;;;;;;;13.10;69.85;98622.73;112124;1205;97729;-76
2021/08/29 04:59:08;;;;;;;26.50;14.60;;;;;;;13.15;69.85;98622.85;112114;1197;111141;-77
2021/08/29 05:01:36;;;;;;;31.00;15.50;;;;;;;13.19;69.88;98622.71;112065;1205;97714;-75
2021/08/29 05:04:06;;;;;;;25.70;14.50;;;;;;;13.22;69.81;98621.14;112054;1205;107462;-76
2021/08/29 05:06:34;;;;;;;28.30;15.00;;;;;;;13.24;69.90;98614.20;112020;1206;95265;-76
2021/08/29 05:09:02;;;;;;;25.50;15.00;;;;;;;13.27;69.95;98611.61;112120;1199;97680;-75
2021/08/29 05:11:30;;;;;;;31.40;15.20;;;;;;;13.30;69.87;98611.16;112052;1205;111121;-77
2021/08/29 05:13:58;;;;;;;26.60;15.10;;;;;;;13.32;69.94;98608.20;112098;1205;98013;-76
2021/08/29 05:16:25;;;;;;;24.40;14.60;;;;;;;13.34;69.98;98610.15;112090;1205;107425;-76
2021/08/29 05:18:53;;;;;;;27.20;15.40;;;;;;;13.36;70.09;98607.63;112091;1199;97756;-76
2021/08/29 05:21:24;;;;;;;23.90;13.90;;;;;;;13.39;70.10;98603.60;112178;1199;97647;-78
2021/08/29 05:23:52;;;;;;;27.80;16.20;;;;;;;13.41;70.15;98596.67;112132;1205;111134;-77
2021/08/29 05:26:20;;;;;;;28.70;15.70;;;;;;;13.42;70.17;98597.67;112119;1205;95758;-79
2021/08/29 05:28:47;;;;;;;26.50;15.90;;;;;;;13.43;70.24;98597.77;112164;1205;107385;-74
2021/08/29 05:31:15;;;;;;;28.20;15.90;;;;;;;13.45;70.25;98595.95;112060;1200;97815;-75
2021/08/29 05:33:43;;;;;;;26.70;15.80;;;;;;;13.49;70.33;98598.15;112190;1199;98442;-76
2021/08/29 05:36:16;;;;;;;27.10;16.60;;;;;;;13.51;70.44;98595.95;112156;1205;111214;-78
2021/08/29 05:38:44;;;;;;;26.60;15.90;;;;;;;13.53;70.37;98596.65;112122;1205;97573;-76
2021/08/29 05:41:12;;;;;;;25.30;15.00;;;;;;;13.55;70.49;98600.95;112007;1205;105515;-76
2021/08/29 05:43:40;;;;;;;25.20;15.10;;;;;;;13.58;70.48;98603.20;112192;1197;97703;-76
2021/08/29 05:46:07;;;;;;;26.80;15.00;;;;;;;13.60;70.44;98603.02;112148;1197;97573;-78
2021/08/29 05:48:35;;;;;;;26.50;15.10;;;;;;;13.61;70.50;98604.71;112429;1205;111135;-76
2021/08/29 05:51:06;;;;;;;24.60;14.70;;;;;;;13.63;70.51;98611.43;112272;1204;97587;-78
2021/08/29 05:53:40;;;;;;;26.80;15.30;;;;;;;13.65;70.57;98612.64;112386;1200;107458;-77
2021/08/29 05:56:08;;;;;;;26.90;15.20;;;;;;;13.67;70.54;98612.40;112191;1200;96389;-77
2021/08/29 05:58:36;;;;;;;26.30;14.30;;;;;;;13.71;70.54;98606.77;112183;1197;95161;-74
2021/08/29 06:01:13;;;;;;;24.00;14.00;;;;;;;13.73;70.55;98601.97;112136;1205;110813;-75
2021/08/29 06:03:42;;;;;;;25.50;13.50;;;;;;;13.74;70.62;98598.81;112173;1205;97655;-75
2021/08/29 06:06:12;;;;;;;24.90;13.80;;;;;;;13.76;70.67;98597.17;112218;1205;107136;-75
2021/08/29 06:08:40;;;;;;;21.70;11.70;;;;;;;13.78;70.63;98593.69;112047;1197;97705;-75
2021/08/29 06:11:09;;;;;;;23.60;12.80;;;;;;;13.78;70.65;98593.77;112210;1197;97599;-79
2021/08/29 06:13:39;;;;;;;22.60;12.20;;;;;;;13.80;70.68;98589.38;112089;1205;111121;-77
2021/08/29 06:16:06;;;;;;;23.00;13.00;;;;;;;13.82;70.74;98589.02;112154;1205;97642;-76
2021/08/29 06:18:35;;;;;;;22.50;12.40;;;;;;;13.83;70.68;98587.07;112096;1205;107496;-76
2021/08/29 06:21:05;;;;;;;22.20;11.90;;;;;;;13.83;70.79;98583.55;112066;1200;97881;-76
2021/08/29 06:23:35;;;;;;;23.80;13.00;;;;;;;13.84;70.82;98583.47;112197;1200;97700;-74
2021/08/29 06:26:03;;;;;;;24.30;13.00;;;;;;;13.86;70.93;98574.00;112233;1205;110705;-75
2021/08/29 06:28:31;;;;;;;22.70;12.90;;;;;;;13.87;70.95;98576.03;112039;1198;97015;-73
2021/08/29 06:30:58;;;;;;;23.50;12.70;;;;;;;13.89;70.92;98572.52;112271;1205;107123;-73
2021/08/29 06:33:26;;;;;;;23.80;12.10;;;;;;;13.90;70.95;98576.12;112195;1197;95039;-71
2021/08/29 06:35:55;;;;;;;27.60;14.30;;;;;;;13.91;70.94;98577.44;112218;1196;98131;-74
2021/08/29 06:38:23;;;;;;;23.10;11.80;;;;;;;13.93;70.97;98581.72;112586;1197;111149;-73
2021/08/29 06:40:51;;;;;;;23.60;12.60;;;;;;;13.93;70.99;98591.70;112167;1204;97586;-72
2021/08/29 06:43:19;;;;;;;21.80;11.40;;;;;;;13.91;70.96;98591.85;112182;1204;108243;-72
2021/08/29 06:45:47;;;;;;;21.60;11.20;;;;;;;13.91;71.00;98593.67;112211;1200;98024;-75
2021/08/29 06:48:15;;;;;;;21.30;10.70;;;;;;;13.93;71.04;98593.61;112247;1198;97694;-76
2021/08/29 06:50:43;;;;;;;20.90;11.70;;;;;;;13.96;71.07;98588.00;112178;1197;111927;-76
2021/08/29 06:53:10;;;;;;;24.10;13.70;;;;;;;13.98;71.03;98579.67;112155;1204;97586;-73
2021/08/29 06:55:38;;;;;;;24.30;13.20;;;;;;;13.98;71.10;98578.89;112146;1205;107388;-74
2021/08/29 06:58:06;;;;;;;22.20;12.80;;;;;;;14.01;71.19;98582.61;112300;1199;97735;-73
2021/08/29 07:00:34;;;;;;;23.40;13.60;;;;;;;14.02;71.20;98589.27;112212;1197;96115;-74
2021/08/29 07:03:05;;;;;;;23.70;13.10;;;;;;;14.02;71.26;98591.20;112293;1204;112376;-74
2021/08/29 07:05:38;;;;;;;22.00;12.80;;;;;;;14.04;71.26;98587.65;112204;1197;95991;-76
2021/08/29 07:08:06;;;;;;;24.00;12.50;;;;;;;14.05;71.32;98585.09;112172;1197;107440;-73
2021/08/29 07:10:34;;;;;;;24.90;14.60;;;;;;;14.06;71.32;98586.53;112205;1204;95364;-75
2021/08/29 07:13:01;;;;;;;23.50;13.70;;;;;;;14.08;71.35;98586.02;112250;1197;97662;-73
2021/08/29 07:15:30;;;;;;;27.40;14.20;;;;;;;14.09;71.35;98593.90;112183;1197;110900;-76
2021/08/29 07:17:58;;;;;;;22.30;13.50;;;;;;;14.11;71.41;98599.84;112138;1204;97646;-76
2021/08/29 07:20:29;;;;;;;22.30;13.60;;;;;;;14.12;71.43;98599.33;112159;1204;107548;-74
2021/08/29 07:22:56;;;;;;;23.60;12.90;;;;;;;14.14;71.43;98595.60;112175;1197;96039;-75
2021/08/29 07:25:25;;;;;;;24.00;12.90;;;;;;;14.16;71.48;98595.43;112120;1198;95737;-75
2021/08/29 07:27:53;;;;;;;21.70;12.60;;;;;;;14.16;71.31;98589.31;112207;1205;111157;-76
2021/08/29 07:30:21;;;;;;;21.60;11.90;;;;;;;14.16;71.44;98582.77;112279;1198;97565;-75
2021/08/29 07:32:48;;;;;;;23.40;11.90;;;;;;;14.19;71.48;98578.29;112246;1204;107324;-76
2021/08/29 07:35:22;;;;;;;23.90;13.10;;;;;;;14.22;71.59;98577.80;112293;1199;97584;-75
2021/08/29 07:37:50;;;;;;;23.00;12.40;;;;;;;14.25;71.52;98579.95;112214;1197;97535;-74
2021/08/29 07:40:19;;;;;;;21.80;12.10;;;;;;;14.27;71.60;98589.42;112136;1196;111057;-73
2021/08/29 07:42:48;;;;;;;23.00;11.90;;;;;;;14.28;71.57;98589.16;112101;1197;97668;-74
2021/08/29 07:45:20;;;;;;;21.60;11.00;;;;;;;14.27;71.60;98589.59;112222;1197;107408;-72
2021/08/29 07:47:52;;;;;;;20.90;11.30;;;;;;;14.24;71.56;98588.05;112160;1197;96025;-74
2021/08/29 07:50:25;;;;;;;22.30;12.40;;;;;;;14.21;71.58;98587.61;112169;1204;97576;-76
2021/08/29 07:52:53;;;;;;;20.70;11.30;;;;;;;14.20;71.63;98593.52;112203;1204;110857;-71
2021/08/29 07:55:21;;;;;;;20.60;10.00;;;;;;;14.17;71.52;98587.55;112201;1205;96324;-72
2021/08/29 07:57:48;;;;;;;18.30;9.10;;;;;;;14.12;71.59;98581.02;112217;1204;107505;-74
2021/08/29 08:00:17;;;;;;;18.50;9.00;;;;;;;14.09;71.69;98580.76;112284;1204;97585;-74
2021/08/29 08:02:44;;;;;;;19.60;10.00;;;;;;;14.08;71.76;98579.07;112262;1197;97696;-72
2021/08/29 08:05:15;;;;;;;17.10;8.10;;;;;;;14.06;71.79;98580.48;112258;1197;112169;-74
2021/08/29 08:07:43;;;;;;;17.10;8.20;;;;;;;14.04;71.78;98585.17;112309;1197;97815;-73
2021/08/29 08:10:12;;;;;;;14.80;6.70;;;;;;;14.01;71.70;98575.27;112717;1197;107443;-74
2021/08/29 08:12:40;;;;;;;14.70;6.90;;;;;;;13.97;71.69;98573.17;113755;1197;95454;-72
2021/08/29 08:15:10;;;;;;;13.20;6.30;;;;;;;13.96;71.88;98571.46;112649;1197;98113;-73
2021/08/29 08:17:40;;;;;;;15.10;7.10;;;;;;;13.98;71.94;98580.92;112223;1204;111016;-72
2021/08/29 08:20:10;;;;;;;14.00;6.20;;;;;;;13.97;71.80;98583.70;112843;1197;97589;-72
2021/08/29 08:22:38;;;;;;;18.40;8.60;;;;;;;13.95;71.96;98583.65;112236;1205;107426;-75
2021/08/29 08:25:09;;;;;;;17.60;9.40;;;;;;;13.96;71.91;98581.25;112231;1198;95054;-72
2021/08/29 08:27:37;;;;;;;12.20;6.20;;;;;;;13.94;71.92;98578.02;112209;1205;97609;-74
2021/08/29 08:30:08;;;;;;;13.70;6.60;;;;;;;13.94;72.06;98577.18;112184;1198;111113;-75
2021/08/29 08:32:36;;;;;;;14.00;7.20;;;;;;;13.94;71.97;98576.67;112218;1204;98282;-73
2021/08/29 08:35:04;;;;;;;16.00;8.20;;;;;;;13.94;72.02;98576.16;112231;1204;107976;-76
2021/08/29 08:37:36;;;;;;;16.40;7.40;;;;;;;13.94;72.08;98573.58;112212;1197;97810;-73
2021/08/29 08:40:07;;;;;;;14.90;7.20;;;;;;;13.95;72.05;98571.72;112207;1197;97564;-70
2021/08/29 08:42:34;;;;;;;12.90;6.20;;;;;;;13.94;72.19;98573.58;112357;1197;111090;-74
2021/08/29 08:45:03;;;;;;;15.40;7.20;;;;;;;13.95;72.16;98571.75;112199;1198;96046;-73
2021/08/29 08:47:34;;;;;;;14.10;6.50;;;;;;;13.96;72.19;98571.77;112234;1204;107451;-73
2021/08/29 08:50:03;;;;;;;11.80;5.70;;;;;;;14.00;72.05;98569.83;112200;1197;97579;-72
2021/08/29 08:52:33;;;;;;;15.20;7.10;;;;;;;14.04;72.17;98569.66;112221;1199;97634;-73
2021/08/29 08:55:04;;;;;;;17.70;7.20;;;;;;;14.08;72.30;98570.55;112518;1197;111158;-74
2021/08/29 08:57:32;;;;;;;13.80;6.80;;;;;;;14.12;72.20;98567.63;112188;1197;97879;-73
2021/08/29 09:00:00;;;;;;;13.20;6.60;;;;;;;14.17;72.34;98570.40;112213;1204;107569;-74
2021/08/29 09:02:28;;;;;;;14.00;6.40;;;;;;;14.22;72.32;98569.90;112710;1198;96516;-73
2021/08/29 09:04:55;;;;;;;14.00;6.90;;;;;;;14.25;72.28;98569.05;112314;1199;96400;-73
2021/08/29 09:07:26;;;;;;;14.10;6.70;;;;;;;14.30;72.34;98571.13;112213;1204;111273;-73
2021/08/29 09:09:54;;;;;;;16.30;7.80;;;;;;;14.33;72.38;98568.00;112183;1197;97569;-72
2021/08/29 09:12:21;;;;;;;14.70;7.30;;;;;;;14.36;72.42;98570.23;112216;1204;107463;-72
2021/08/29 09:14:57;;;;;;;18.30;9.10;;;;;;;14.38;72.39;98571.60;112317;1200;95751;-72
2021/08/29 09:17:27;;;;;;;18.00;8.90;;;;;;;14.39;72.48;98572.41;112216;1204;97358;-73
2021/08/29 09:20:20;;;;;;;18.30;8.20;;;;;;;14.37;72.38;98572.10;112247;1204;111124;-73
2021/08/29 09:22:58;;;;;;;15.40;7.50;;;;;;;14.35;72.39;98572.47;112194;1197;97577;-72
2021/08/29 09:25:30;;;;;;;16.30;7.80;;;;;;;14.35;72.53;98567.05;112196;1197;105327;-72
2021/08/29 09:28:11;;;;;;;25.30;13.10;;;;;;;14.37;72.64;98570.11;112137;1201;97539;-74
2021/08/29 09:30:49;;;;;;;20.00;10.60;;;;;;;14.41;72.75;98571.35;112176;1200;97684;-70
2021/08/29 09:33:17;;;;;;;19.30;9.40;;;;;;;14.47;72.71;98569.70;112208;1204;110978;-72
2021/08/29 09:35:54;;;;;;;17.40;8.10;;;;;;;14.52;72.71;98569.19;112178;1206;97672;-72
2021/08/29 09:38:21;;;;;;;13.50;7.20;;;;;;;14.56;72.75;98573.73;112255;1204;107312;-74
2021/08/29 09:40:49;;;;;;;15.50;7.40;;;;;;;14.60;72.77;98571.83;112183;1198;96267;-72
2021/08/29 09:43:17;;;;;;;13.90;6.20;;;;;;;14.63;72.73;98566.21;112281;1197;95050;-72
2021/08/29 09:45:45;;;;;;;13.20;6.40;;;;;;;14.65;72.66;98565.40;112230;1200;111144;-74
2021/08/29 09:48:16;;;;;;;13.70;6.80;;;;;;;14.68;72.78;98562.08;112640;1200;95678;-74
2021/08/29 09:50:46;;;;;;;12.10;6.00;;;;;;;14.72;72.74;98560.31;112384;1204;107582;-73
2021/08/29 09:53:21;;;;;;;12.40;6.50;;;;;;;14.77;72.78;98558.09;112060;1198;97574;-73
2021/08/29 09:55:52;;;;;;;13.70;6.80;;;;;;;14.80;72.80;98560.80;112176;1201;97645;-80
2021/08/29 09:58:31;;;;;;;12.70;6.50;;;;;;;14.83;72.86;98561.60;112191;1204;111095;-75
2021/08/29 10:01:13;;;;;;;13.80;6.30;;;;;;;14.85;72.75;98561.05;112119;1204;97748;-81
2021/08/29 10:03:49;;;;;;;16.70;7.30;;;;;;;14.86;72.78;98562.01;112214;1204;107126;-78
2021/08/29 10:06:27;;;;;;;13.20;6.20;;;;;;;14.87;72.79;98562.39;112182;1204;97861;-76
2021/08/29 10:09:00;;;;;;;9.00;5.70;;;;;;;14.89;72.81;98561.16;112199;1198;97563;-71
2021/08/29 10:11:31;;;;;;;11.70;6.00;;;;;;;14.91;72.86;98558.13;112201;1204;111128;-73
2021/08/29 10:14:01;;;;;;;12.90;6.10;;;;;;;14.91;72.85;98559.00;112221;1204;96049;-71
2021/08/29 10:16:31;;;;;;;13.30;6.10;;;;;;;14.92;72.78;98555.56;112161;1206;107410;-70
2021/08/29 10:18:59;;;;;;;11.50;5.90;;;;;;;14.92;72.81;98559.23;112135;1200;98342;-71
2021/08/29 10:21:35;;;;;;;11.40;6.40;;;;;;;14.92;72.79;98559.14;112220;1204;97194;-73
2021/08/29 10:24:10;;;;;;;13.20;6.30;;;;;;;14.92;72.94;98558.20;112195;1198;111131;-71
2021/08/29 10:26:44;;;;;;;13.20;6.70;;;;;;;14.92;72.85;98559.14;112238;1204;97670;-72
2021/08/29 10:29:17;;;;;;;16.10;7.00;;;;;;;14.93;72.89;98556.70;112276;1205;108003;-74
2021/08/29 10:31:52;;;;;;;15.70;8.10;;;;;;;14.92;72.89;98558.71;112102;1204;97661;-70
2021/08/29 10:34:24;;;;;;;13.70;6.90;;;;;;;14.91;73.00;98556.13;112201;1198;97653;-71
2021/08/29 10:36:56;;;;;;;14.60;7.10;;;;;;;14.92;72.96;98554.09;112167;1204;111065;-70
2021/08/29 10:39:25;;;;;;;16.00;7.10;;;;;;;14.92;72.98;98553.70;112385;1197;97372;-70
2021/08/29 10:41:54;;;;;;;13.50;7.00;;;;;;;14.94;73.02;98551.73;112209;1198;107489;-74
2021/08/29 10:44:24;;;;;;;18.20;8.00;;;;;;;14.95;72.95;98547.52;112252;1197;97678;-70
2021/08/29 10:46:54;;;;;;;15.30;7.90;;;;;;;14.96;72.95;98549.98;112958;1197;96043;-74
2021/08/29 10:49:23;;;;;;;18.20;8.00;;;;;;;14.99;73.08;98544.05;112144;1204;111017;-69
2021/08/29 10:51:55;;;;;;;14.00;6.90;;;;;;;15.05;73.15;98543.88;112157;1199;97652;-71
2021/08/29 10:54:25;;;;;;;12.80;6.80;;;;;;;15.10;73.11;98540.86;112221;1198;107521;-70
2021/08/29 10:56:52;;;;;;;14.80;7.00;;;;;;;15.14;73.08;98531.58;112216;1204;96866;-72
2021/08/29 10:59:25;;;;;;;14.90;7.20;;;;;;;15.18;73.06;98534.48;112236;1198;97554;-73
2021/08/29 11:02:10;;;;;;;17.40;7.30;;;;;;;15.24;73.06;98531.30;112126;1205;111331;-76
2021/08/29 11:04:43;;;;;;;12.60;6.40;;;;;;;15.27;72.99;98531.91;112937;1197;97593;-74
2021/08/29 11:07:11;;;;;;;13.50;6.50;;;;;;;15.29;73.09;98531.14;112296;1205;107536;-72
2021/08/29 11:09:50;;;;;;;14.10;6.40;;;;;;;15.30;73.10;98530.31;112176;1204;97585;-73
2021/08/29 11:12:19;;;;;;;13.10;6.70;;;;;;;15.30;73.12;98533.73;112212;1204;95723;-75
2021/08/29 11:14:54;;;;;;;10.80;6.10;;;;;;;15.31;73.11;98536.09;112205;1204;111154;-74
2021/08/29 11:17:26;;;;;;;13.50;6.50;;;;;;;15.33;73.13;98532.48;112169;1204;95048;-70
2021/08/29 11:20:18;;;;;;;15.50;6.50;;;;;;;15.34;73.09;98535.95;112116;1203;107480;-74
2021/08/29 11:22:49;;;;;;;13.40;6.50;;;;;;;15.35;73.14;98533.37;112135;1204;97666;-75
2021/08/29 11:25:25;;;;;;;15.60;6.80;;;;;;;15.37;73.27;98531.75;112147;1198;96879;-74